Latest Weather Observations for Yarrawonga

IDN60801

Issued at 12:05 pm EDT Wednesday 22 October 2014 (issued every 30 minutes, with the page automatically refreshed every 10 minutes)

About weather observations | Map of weather stations | Latest weather observations for NSW | Other Formats
Station Details ID: 081124 Name: YARRAWONGA Lat: -36.03 Lon: 146.03 Height: 128.9 m
Data from the previous 72 hours. | See also: Recent months at Yarrawonga
Date/Time
EDT
Temp
°C
App
Temp
°C
Dew
Point
Rel
Hum
%
Delta-T
°C
Wind Press
QNH
hPa
Press
MSL
hPa
Rain
since 9 am
mm
Dir
 
Spd
km/h
Gust
km/h
Spd
kts
Gust
kts
22/12:00pm 25.7 22.7 10.7 39 8.4 NE 17 32 9 17 1020.8 1020.7 0.0
22/11:30am 24.5 21.2 10.8 42 7.7 ENE 19 28 10 15 1021.2 1021.1 0.0
22/11:00am 23.2 19.3 10.9 46 6.8 NE 22 30 12 16 1021.7 1021.7 0.0
22/10:30am 22.2 18.3 10.7 48 6.4 NE 22 33 12 18 1022.0 1022.0 0.0
22/10:00am 21.1 17.5 10.6 51 5.7 NE 20 30 11 16 1022.3 1022.3 0.0
22/09:30am 19.3 15.2 10.0 55 5.0 NE 22 32 12 17 1022.6 1022.6 0.0
22/09:00am 18.8 14.7 10.1 57 4.7 NE 22 32 12 17 1022.8 1022.8 0.0
22/08:30am 16.9 13.2 10.3 65 3.5 ENE 20 28 11 15 1023.2 1023.1 0.0
22/08:00am 16.1 12.5 10.0 67 3.2 ENE 19 26 10 14 1023.2 1023.1 0.0
22/07:30am 14.9 12.6 10.5 75 2.3 ENE 13 17 7 9 1023.1 1023.0 0.0
22/07:00am 13.6 11.3 10.6 82 1.6 ENE 13 19 7 10 1022.7 1022.7 0.0
22/06:30am 12.7 10.7 10.2 85 1.3 ENE 11 17 6 9 1022.7 1022.7 0.0
22/06:00am 12.7 11.1 10.2 85 1.3 NE 9 13 5 7 1022.5 1022.5 0.0
22/05:30am 12.7 10.7 10.2 85 1.3 NE 11 15 6 8 1022.1 1022.1 0.0
22/05:00am 12.7 10.7 10.2 85 1.3 ENE 11 13 6 7 1021.9 1021.9 0.0
22/04:30am 12.9 11.3 10.3 84 1.4 NE 9 11 5 6 1022.0 1022.0 0.0
22/04:00am 13.3 10.9 10.1 81 1.7 NE 13 17 7 9 1021.9 1021.9 0.0
22/03:30am 14.4 12.1 10.4 77 2.1 NE 13 19 7 10 1022.0 1022.0 0.0
22/03:00am 14.9 12.4 10.9 77 2.1 ENE 15 19 8 10 1021.9 1021.9 0.0
22/02:30am 14.8 12.3 11.0 78 2.0 ENE 15 19 8 10 1022.2 1022.2 0.0
22/02:00am 15.4 12.9 11.2 76 2.3 ENE 15 19 8 10 1022.6 1022.6 0.0
22/01:30am 15.1 12.9 10.9 76 2.2 ENE 13 17 7 9 1022.9 1022.9 0.0
22/01:00am 15.4 13.3 11.2 76 2.2 ENE 13 17 7 9 1023.4 1023.3 0.0
22/12:30am 15.5 13.8 11.3 76 2.3 ENE 11 15 6 8 1023.6 1023.5 0.0
22/12:00am 15.9 14.7 11.5 75 2.4 NE 9 13 5 7 1023.7 1023.6 0.0
 
Date/Time
EDT
Temp
°C
App
Temp
°C
Dew
Point
Rel
Hum
%
Delta-T
°C
Wind Press
QNH
hPa
Press
MSL
hPa
Rain
since 9 am
mm
Dir
 
Spd
km/h
Gust
km/h
Spd
kts
Gust
kts
21/11:30pm 16.1 14.4 11.3 73 2.6 NE 11 13 6 7 1023.8 1023.7 0.0
21/11:00pm 17.2 16.3 11.2 68 3.2 NE 7 11 4 6 1023.9 1023.8 0.0
21/10:30pm 17.7 16.0 11.3 66 3.5 NE 11 13 6 7 1023.8 1023.7 0.0
21/10:00pm 18.9 16.8 11.2 61 4.2 NE 13 17 7 9 1023.8 1023.7 0.0
21/09:30pm 18.1 15.9 10.7 62 4.0 ENE 13 19 7 10 1023.6 1023.5 0.0
21/09:00pm 16.8 15.2 10.2 65 3.5 E 9 9 5 5 1023.4 1023.3 0.0
21/08:30pm 18.1 17.1 11.0 63 3.9 E 7 9 4 5 1023.2 1023.1 0.0
21/08:00pm 19.6 18.5 10.6 56 4.9 E 7 9 4 5 1022.8 1022.8 0.0
21/07:30pm 22.1 20.5 10.3 47 6.5 E 9 11 5 6 1022.6 1022.6 0.0
21/07:00pm 24.8 23.2 10.3 40 8.0 E 9 11 5 6 1022.5 1022.5 0.0
21/06:30pm 26.6 24.7 9.0 33 9.7 E 9 11 5 6 1022.4 1022.4 0.0
21/06:00pm 27.4 25.0 8.8 31 10.2 ENE 11 15 6 8 1022.6 1022.6 0.0
21/05:30pm 27.8 25.4 8.6 30 10.5 ENE 11 17 6 9 1022.6 1022.6 0.0
21/05:00pm 28.0 25.8 9.3 31 10.4 ENE 11 17 6 9 1022.6 1022.6 0.0
21/04:30pm 27.9 25.5 8.7 30 10.6 ENE 11 19 6 10 1022.8 1022.8 0.0
21/04:00pm 27.9 25.8 9.7 32 10.1 E 11 19 6 10 1023.3 1023.2 0.0
21/03:30pm 27.6 25.0 9.4 32 10.1 E 13 24 7 13 1023.7 1023.6 0.0
21/03:00pm 27.3 25.2 9.6 33 9.8 E 11 22 6 12 1024.1 1024.0 0.0
21/02:30pm 26.9 24.8 9.7 34 9.6 ENE 11 19 6 10 1024.6 1024.5 0.0
21/02:00pm 26.6 24.5 9.9 35 9.3 NE 11 24 6 13 1025.0 1024.9 0.0
21/01:30pm 25.6 22.2 9.0 35 9.1 ENE 17 28 9 15 1025.5 1025.4 0.0
21/01:00pm 25.1 21.8 9.4 37 8.6 E 17 24 9 13 1025.9 1025.8 0.0
21/12:30pm 24.9 22.0 9.6 38 8.4 ENE 15 22 8 12 1026.2 1026.1 0.0
21/12:00pm 24.6 20.9 9.3 38 8.3 ENE 19 33 10 18 1026.6 1026.5 0.0
21/11:30am 23.0 19.0 9.0 41 7.5 ENE 20 30 11 16 1027.1 1027.0 0.0
21/11:00am 22.1 18.4 9.3 44 6.9 ENE 19 28 10 15 1027.4 1027.3 0.0
21/10:30am 20.1 16.0 8.8 48 6.0 NE 20 30 11 16 1027.7 1027.6 0.0
21/10:00am 19.3 15.2 8.6 50 5.6 ENE 20 28 11 15 1027.7 1027.6 0.0
21/09:30am 18.0 13.5 8.6 54 4.9 NE 22 32 12 17 1027.8 1027.7 0.0
21/09:00am 17.0 12.8 8.4 57 4.4 NE 20 30 11 16 1027.7 1027.6 0.0
21/08:30am 15.8 12.4 9.2 65 3.4 ENE 17 22 9 12 1027.6 1027.5 0.0
21/08:00am 14.5 11.4 8.9 69 2.8 ENE 15 22 8 12 1027.3 1027.2 0.0
21/07:30am 13.1 10.7 8.8 75 2.2 NE 11 15 6 8 1027.2 1027.1 0.0
21/07:00am 11.2 9.2 8.8 85 1.2 NE 9 13 5 7 1026.9 1026.8 0.0
21/06:30am 10.4 8.0 8.5 88 0.9 NE 11 13 6 7 1026.6 1026.5 0.0
21/06:00am 10.5 8.0 8.3 86 1.1 ENE 11 13 6 7 1026.2 1026.1 0.0
21/05:30am 11.2 8.8 8.6 84 1.3 NE 11 15 6 8 1025.9 1025.8 0.0
21/05:00am 11.6 8.8 8.6 82 1.5 NE 13 15 7 8 1025.9 1025.8 0.0
21/04:30am 12.3 9.6 9.0 80 1.7 ENE 13 20 7 11 1025.7 1025.6 0.0
21/04:00am 11.8 9.8 8.6 81 1.6 NE 9 13 5 7 1025.6 1025.5 0.0
21/03:30am 12.8 10.0 8.7 76 2.1 NE 13 19 7 10 1025.7 1025.6 0.0
21/03:00am 13.9 10.0 8.7 71 2.6 NNE 19 30 10 16 1025.7 1025.6 0.0
21/02:30am 12.9 10.3 9.5 80 1.7 NE 13 17 7 9 1025.7 1025.6 0.0
21/02:00am 13.8 11.2 9.3 74 2.3 NE 13 19 7 10 1025.8 1025.7 0.0
21/01:30am 14.8 11.8 9.4 70 2.8 NE 15 20 8 11 1025.8 1025.7 0.0
21/01:00am 15.2 12.5 10.2 72 2.6 NE 15 22 8 12 1025.7 1025.6 0.0
21/12:30am 14.1 11.8 9.1 72 2.6 NE 11 15 6 8 1025.4 1025.3 0.0
21/12:00am 11.7 9.5 8.0 78 1.8 E 9 15 5 8 1025.0 1024.9 0.0
 
Date/Time
EDT
Temp
°C
App
Temp
°C
Dew
Point
Rel
Hum
%
Delta-T
°C
Wind Press
QNH
hPa
Press
MSL
hPa
Rain
since 9 am
mm
Dir
 
Spd
km/h
Gust
km/h
Spd
kts
Gust
kts
20/11:30pm 11.1 9.9 8.0 81 1.5 S 4 6 2 3 1024.9 1024.8 0.0
20/11:00pm 12.1 10.5 8.2 77 1.9 SSW 6 7 3 4 1024.5 1024.4 0.0
20/10:30pm 12.0 10.2 8.1 77 1.9 WSW 7 9 4 5 1024.3 1024.2 0.0
20/10:00pm 13.1 11.4 8.2 72 2.4 WSW 7 9 4 5 1024.1 1024.0 0.0
20/09:30pm 15.5 13.3 8.0 61 3.8 WSW 9 11 5 6 1024.0 1023.9 0.0
20/09:00pm 15.5 13.3 7.8 60 3.9 SW 9 11 5 6 1023.6 1023.5 0.0
20/08:30pm 15.9 13.2 7.4 57 4.3 SW 11 13 6 7 1023.1 1023.0 0.0
20/08:00pm 17.3 15.6 8.4 56 4.6 SW 7 9 4 5 1022.8 1022.8 0.0
20/07:30pm 20.7 18.9 8.0 44 6.6 SW 7 9 4 5 1022.6 1022.6 0.0
20/07:00pm 24.4 22.0 7.1 33 9.1 SW 9 13 5 7 1022.2 1022.2 0.0
20/06:30pm 26.5 23.5 6.0 27 10.7 SW 11 15 6 8 1022.1 1022.1 0.0
20/06:00pm 27.3 24.1 5.0 24 11.4 SSW 11 17 6 9 1021.9 1021.9 0.0
20/05:30pm 28.1 24.4 6.2 25 11.6 SSW 15 24 8 13 1021.9 1021.9 0.0
20/05:00pm 28.1 24.4 6.2 25 11.5 SSW 15 22 8 12 1021.9 1021.9 0.0
20/04:30pm 28.4 25.5 8.1 28 11.1 SW 13 22 7 12 1021.9 1021.9 0.0
20/04:00pm 28.3 25.5 8.6 29 10.8 SSW 13 20 7 11 1022.0 1022.0 0.0
20/03:30pm 27.9 25.4 8.2 29 10.8 SSW 11 26 6 14 1022.3 1022.3 0.0
20/03:00pm 27.8 25.9 9.1 31 10.3 SW 9 17 5 9 1022.7 1022.7 0.0
20/02:30pm 27.2 24.9 9.1 32 10.0 SW 11 17 6 9 1023.2 1023.1 0.0
20/02:00pm 26.7 25.4 10.0 35 9.3 SSW 7 15 4 8 1023.6 1023.5 0.0
20/01:30pm 26.7 25.7 10.4 36 9.2 S 6 15 3 8 1023.9 1023.8 0.0
20/01:00pm 26.1 25.1 10.3 37 8.8 W 6 11 3 6 1024.0 1023.9 0.0
20/12:30pm 25.8 24.9 10.8 39 8.5 WSW 6 11 3 6 1024.5 1024.4 0.0
20/12:00pm 24.4 23.0 11.0 43 7.5 SW 9 15 5 8 1024.7 1024.6 0.0
20/11:30am 23.8 23.0 11.2 45 7.1 SSW 6 11 3 6 1024.9 1024.8 0.0
20/11:00am 22.1 21.1 10.9 49 6.2 SSW 7 13 4 7 1025.0 1024.9 0.0
20/10:30am 21.5 20.7 11.2 52 5.7 S 6 7 3 4 1025.1 1025.0 0.0
20/10:00am 20.3 19.4 10.7 54 5.2 SSW 6 11 3 6 1025.2 1025.1 0.0
20/09:30am 18.6 17.1 10.7 60 4.3 SSW 9 15 5 8 1025.2 1025.1 0.0
20/09:00am 17.4 15.5 10.5 64 3.7 SSW 11 15 6 8 1025.0 1024.9 0.0
20/08:30am 15.5 13.6 10.5 72 2.7 SSW 11 13 6 7 1024.5 1024.4 0.0
20/08:00am 13.8 11.8 10.0 78 2.0 SSW 11 13 6 7 1024.3 1024.2 0.0
20/07:30am 12.3 11.0 10.0 86 1.2 SSW 7 13 4 7 1024.0 1023.9 0.0
20/07:00am 10.4 8.7 9.8 96 0.3 SW 9 13 5 7 1023.5 1023.4 0.0
20/06:30am 9.5 7.1 8.7 95 0.4 WSW 11 15 6 8 1023.2 1023.1 0.0
20/06:00am 10.6 8.7 9.2 91 0.7 SSW 9 11 5 6 1022.8 1022.8 0.0
20/05:30am 11.5 9.5 10.1 91 0.7 SSW 11 17 6 9 1022.4 1022.4 0.0
20/05:00am 12.1 9.4 10.2 88 1.0 SSW 15 17 8 9 1022.3 1022.3 0.0
20/04:30am 12.6 9.9 10.3 86 1.2 SSW 15 17 8 9 1022.1 1022.1 0.0
20/04:00am 12.4 10.5 10.5 88 1.0 SSW 11 15 6 8 1021.9 1021.9 0.0
20/03:30am 12.2 9.9 10.4 89 0.9 SSW 13 19 7 10 1021.9 1021.9 0.0
20/03:00am 12.3 10.4 10.5 89 0.9 SSW 11 17 6 9 1021.8 1021.8 0.0
20/02:30am 11.9 9.9 10.3 90 0.8 SW 11 15 6 8 1021.8 1021.8 0.0
20/02:00am 12.2 10.1 9.9 86 1.2 WSW 11 13 6 7 1021.3 1021.2 0.0
20/01:30am 13.4 12.4 10.2 81 1.7 SSW 6 7 3 4 1021.6 1021.6 0.0
20/01:00am 14.0 12.1 10.6 80 1.8 SSW 11 15 6 8 1022.2 1022.2 0.0
20/12:30am 13.4 12.5 10.6 83 1.5 S 6 13 3 7 1022.2 1022.2 0.0
20/12:00am 14.1 13.3 10.9 81 1.7 SSE 6 7 3 4 1021.9 1021.9 0.0
 
Date/Time
EDT
Temp
°C
App
Temp
°C
Dew
Point
Rel
Hum
%
Delta-T
°C
Wind Press
QNH
hPa
Press
MSL
hPa
Rain
since 9 am
mm
Dir
 
Spd
km/h
Gust
km/h
Spd
kts
Gust
kts
19/11:30pm 15.4 13.3 11.2 76 2.3 SSW 13 22 7 12 1022.4 1022.4 0.0
19/11:00pm 14.3 13.3 10.9 80 1.8 S 7 9 4 5 1021.6 1021.6 0.0
19/10:30pm 16.4 16.6 11.8 74 2.5 NE 2 4 1 2 1021.3 1021.2 0.0
19/10:00pm 17.3 16.2 12.0 71 2.9 NE 9 11 5 6 1021.1 1021.0 0.0
19/09:30pm 17.1 16.1 12.4 74 2.6 ENE 9 13 5 7 1021.2 1021.1 0.0
19/09:00pm 17.4 16.5 11.4 68 3.3 ENE 7 9 4 5 1021.1 1021.0 0.0
19/08:30pm 19.0 16.9 11.1 60 4.3 E 13 13 7 7 1020.9 1020.8 0.0
19/08:00pm 19.9 18.4 10.6 55 5.1 E 9 17 5 9 1020.9 1020.8 0.0
19/07:30pm 23.4 22.8 11.8 48 6.6 ESE 6 6 3 3 1020.8 1020.7 0.0
19/07:00pm 26.5 26.3 11.8 40 8.4 ESE 4 4 2 2 1020.5 1020.4 0.0
19/06:30pm 27.8 27.2 7.6 28 10.9 CALM 0 0 0 0 1020.2 1020.1 0.0
19/06:00pm 28.5 25.9 3.4 20 12.6 NW 6 7 3 4 1020.3 1020.2 0.0
19/05:30pm 29.6 26.1 1.1 16 13.9 NW 9 17 5 9 1020.3 1020.2 0.0
19/05:00pm 30.5 27.1 1.9 16 14.2 WNW 9 13 5 7 1020.2 1020.1 0.0
19/04:30pm 29.5 26.6 2.7 18 13.4 WNW 7 11 4 6 1020.4 1020.3 0.0
19/04:00pm 30.1 26.8 2.4 17 13.8 NW 9 15 5 8 1020.8 1020.7 0.0
19/03:30pm 30.5 26.0 1.9 16 14.2 N 15 20 8 11 1021.0 1020.9 0.0
19/03:00pm 29.2 24.4 2.5 18 13.3 NNW 17 24 9 13 1021.4 1021.3 0.0
19/02:30pm 29.9 27.2 3.8 19 13.4 WNW 7 17 4 9 1021.7 1021.7 0.0
19/02:00pm 29.0 26.5 6.4 24 12.0 NE 9 15 5 8 1022.2 1022.2 0.0
19/01:30pm 27.2 24.5 5.5 25 11.3 NNE 9 15 5 8 1022.9 1022.9 0.0
19/01:00pm 27.5 24.4 5.7 25 11.3 NNE 11 17 6 9 1023.6 1023.5 0.0
19/12:30pm 26.3 24.2 8.3 32 9.8 ENE 9 17 5 9 1023.9 1023.8 0.0

Other Formats:

Comma delimited format used in spreadsheet applications
http://www.bom.gov.au/fwo/IDN60801/IDN60801.94862.axf

JavaScript Object Notation format (JSON) in row-major order
http://www.bom.gov.au/fwo/IDN60801/IDN60801.94862.json